Corridon, Missouri
Current Conditions -  °F | °C
As of 12:35 AM on Saturday 01 Nov 2014 (Local Time) from KFAM Reporting Station
Clear Clear  
Wind Chill: 25°   Ceiling: Unl
Heat Index: 32°   Visibility: 10mi
Dew Point: 19°   Wind: 8mph
Humidity: 60%   Direction: 320°NW
Pressure: 30.37"   Gusts: NA
Location:  37.4443°N, 90.9972°W
Report Text: KFAM 010535Z AUTO 32007KT 10SM CLR 00/M07 A3037 RMK AO1
Loading
Personal Weather Stations






























Interactive Weather Map
Tropical Storm Tracking
New forecast layout! Learn more

10-Day Weather Forecast

Advertisements
Track Severe Weather on mobile